Observations for BRESCIA MONTICHIA, Italy (LIPO)

LIPO 100150Z 30008KT CAVOK 06/02 Q1011  
LIPO 100050Z 28011KT CAVOK 06/02 Q1010  
LIPO 092350Z 27011KT CAVOK 06/02 Q1010  
LIPO 092250Z 26015KT CAVOK 06/02 Q1010  
LIPO 092150Z 27011KT CAVOK 06/03 Q1009  
LIPO 092050Z 28006KT CAVOK 06/04 Q1009  
LIPO 091950Z 30017KT CAVOK 08/04 Q1008  
LIPO 091850Z 30015KT 7000 NSC 07/04 Q1008   
LIPO 091750Z 28011KT 6000 NSC 06/05 Q1007   
LIPO 091650Z 28007KT 5000 BR NSC 06/05 Q1008
LIPO 091550Z 25007KT 5000 BR NSC 07/05 Q1008
LIPO 091450Z 27007KT CAVOK 09/05 Q1007  
LIPO 091350Z 26008KT CAVOK 08/05 Q1007  
LIPO 091250Z 24008KT CAVOK 07/06 Q1007  
LIPO 091150Z 20005KT CAVOK 07/05 Q1007  
LIPO 091050Z 26007KT CAVOK 08/04 Q1007  
LIPO 090950Z 27006KT CAVOK 07/04 Q1007  
LIPO 090850Z 04004KT CAVOK 06/03 Q1006  
LIPO 090750Z 03006KT CAVOK 03/01 Q1007  
LIPO 090650Z 09005KT CAVOK 02/02 Q1007  
LIPO 090550Z 14003KT CAVOK 01/01 Q1008  
LIPO 090450Z 05005KT CAVOK 02/02 Q1008  
LIPO 090350Z 06004KT 7000 NSC 02/02 Q1010   
LIPO 090250Z 04007KT 7000 NSC 02/02 Q1011   
LIPO 090150Z 05005KT 7000 NSC 03/03 Q1012